Time;durP1;ratioP1;P1;durP2;ratioP2;P2;SDS_P1;SDS_P2;PMS_P1;PMS_P2;Temp;Humidity;BMP_temperature;BMP_pressure;BME280_temperature;BME280_humidity;BME280_pressure;Samples;Min_cycle;Max_cycle;Signal;HPM_P1;HPM_P2
2021/07/15 00:00:31;;;;;;;;;;;;;;;24.64;60.80;101456.31;4943138;29;19918;-82
2021/07/15 00:02:58;;;;;;;;;;;;;;;24.27;61.04;101458.97;4926964;29;20017;-83
2021/07/15 00:05:24;;;;;;;;;;;;;;;25.19;58.68;101451.84;4943524;29;19978;-82
2021/07/15 00:07:49;;;;;;;;;;;;;;;24.28;61.75;101455.16;4942718;29;20380;-81
2021/07/15 00:10:28;;;;;;;;;;;;;;;24.85;59.50;101456.09;4924983;29;20284;-81
2021/07/15 00:12:53;;;;;;;;;;;;;;;24.90;59.58;101461.16;4922936;29;19926;-83
2021/07/15 00:15:23;;;;;;;;;;;;;;;24.15;61.30;101466.56;4926032;29;19925;-82
2021/07/15 00:17:49;;;;;;;;;;;;;;;24.15;61.56;101467.41;4943492;29;20376;-82
2021/07/15 00:20:15;;;;;;;;;;;;;;;23.60;63.30;101467.09;4926784;29;19919;-81
2021/07/15 00:22:41;;;;;;;;;;;;;;;24.35;61.28;101468.28;4943103;29;19966;-81
2021/07/15 00:25:07;;;;;;;;;;;;;;;24.83;59.33;101468.31;4925688;29;19961;-81
2021/07/15 00:27:33;;;;;;;;;;;;;;;24.67;60.03;101480.00;4925797;29;19926;-82
2021/07/15 00:29:58;;;;;;;;;;;;;;;24.46;60.49;101474.66;4927530;29;20013;-81
2021/07/15 00:32:23;;;;;;;;;;;;;;;24.64;60.18;101474.78;4928724;29;19986;-81
2021/07/15 00:34:48;;;;;;;;;;;;;;;24.63;60.43;101476.69;4929535;29;19984;-81
2021/07/15 00:37:13;;;;;;;;;;;;;;;24.91;58.88;101468.41;4926664;29;19919;-81
2021/07/15 00:39:39;;;;;;;;;;;;;;;24.89;59.53;101476.03;4940819;29;19915;-81
2021/07/15 00:42:04;;;;;;;;;;;;;;;24.73;59.88;101477.53;4940307;29;19918;-81
2021/07/15 00:44:29;;;;;;;;;;;;;;;24.99;58.36;101465.78;4940285;29;19919;-81
2021/07/15 00:46:54;;;;;;;;;;;;;;;24.17;61.17;101467.25;4940779;29;19925;-80
2021/07/15 00:49:19;;;;;;;;;;;;;;;25.02;59.12;101476.56;4940822;29;19926;-82
2021/07/15 00:51:45;;;;;;;;;;;;;;;25.20;57.87;101476.63;4923415;29;19926;-81
2021/07/15 00:54:10;;;;;;;;;;;;;;;24.44;60.55;101468.41;4925324;29;19918;-81
2021/07/15 00:56:35;;;;;;;;;;;;;;;24.51;60.34;101470.41;4925278;29;19947;-81
2021/07/15 00:59:01;;;;;;;;;;;;;;;24.77;59.62;101467.03;4945133;29;20013;-81
2021/07/15 01:01:26;;;;;;;;;;;;;;;24.40;60.63;101465.94;4932549;29;19919;-81
2021/07/15 01:03:51;;;;;;;;;;;;;;;24.86;58.94;101456.94;4947534;29;20014;-81
2021/07/15 01:06:17;;;;;;;;;;;;;;;24.54;59.87;101453.53;4943435;29;19923;-82
2021/07/15 01:08:42;;;;;;;;;;;;;;;23.99;62.55;101468.03;4922631;29;19919;-83
2021/07/15 01:11:15;;;;;;;;;;;;;;;24.78;59.03;101463.25;4941906;29;19942;-81
2021/07/15 01:13:46;;;;;;;;;;;;;;;24.50;60.62;101470.56;4942268;29;20299;-82
2021/07/15 01:16:24;;;;;;;;;;;;;;;24.73;59.79;101480.31;4925067;29;19919;-82
2021/07/15 01:19:00;;;;;;;;;;;;;;;24.69;59.61;101476.09;4924369;29;19918;-81
2021/07/15 01:21:31;;;;;;;;;;;;;;;24.53;60.30;101476.69;4941101;29;19915;-81
2021/07/15 01:24:15;;;;;;;;;;;;;;;25.01;59.24;101474.78;4941447;29;19919;-85
2021/07/15 01:27:00;;;;;;;;;;;;;;;24.83;58.86;101476.63;4923601;29;19927;-82
2021/07/15 01:29:45;;;;;;;;;;;;;;;25.18;57.61;101477.78;4924224;29;20292;-81
2021/07/15 01:32:12;;;;;;;;;;;;;;;24.99;58.71;101479.63;4931145;29;19919;-81
2021/07/15 01:34:39;;;;;;;;;;;;;;;25.03;58.69;101478.31;4923327;29;19918;-83
2021/07/15 01:37:04;;;;;;;;;;;;;;;24.82;59.17;101485.94;4938980;29;19918;-82
2021/07/15 01:39:32;;;;;;;;;;;;;;;24.98;58.75;101486.19;4922617;29;19926;-82
2021/07/15 01:42:02;;;;;;;;;;;;;;;24.32;61.10;101484.28;4922412;29;19919;-79
2021/07/15 01:44:29;;;;;;;;;;;;;;;24.10;61.61;101482.72;4922332;29;19973;-80
2021/07/15 01:46:54;;;;;;;;;;;;;;;24.21;61.26;101482.56;4941337;29;19919;-80
2021/07/15 01:49:20;;;;;;;;;;;;;;;24.20;61.04;101483.56;4924992;29;20427;-82
2021/07/15 01:51:45;;;;;;;;;;;;;;;24.21;61.35;101482.56;4942108;29;20036;-82
2021/07/15 01:54:12;;;;;;;;;;;;;;;24.09;61.64;101476.28;4925287;29;19919;-83
2021/07/15 01:56:39;;;;;;;;;;;;;;;24.13;61.85;101475.00;4925639;29;19922;-82
2021/07/15 01:59:06;;;;;;;;;;;;;;;23.95;61.96;101482.28;4940999;29;19927;-81
2021/07/15 02:01:32;;;;;;;;;;;;;;;24.05;61.52;101475.72;4923500;29;19926;-81
2021/07/15 02:04:00;;;;;;;;;;;;;;;23.80;62.62;101468.84;4922017;29;19919;-80
2021/07/15 02:06:27;;;;;;;;;;;;;;;23.44;63.56;101462.13;4923330;29;19918;-82
2021/07/15 02:08:52;;;;;;;;;;;;;;;23.56;63.74;101472.03;4941097;29;19926;-80
2021/07/15 02:11:20;;;;;;;;;;;;;;;23.87;62.22;101460.91;4942098;29;19919;-80
2021/07/15 02:13:47;;;;;;;;;;;;;;;23.41;63.91;101456.88;4924748;29;19966;-80
2021/07/15 02:16:13;;;;;;;;;;;;;;;23.74;63.28;101452.84;4923948;29;19923;-83
2021/07/15 02:18:39;;;;;;;;;;;;;;;23.44;63.60;101456.59;4941029;29;19926;-81
2021/07/15 02:21:04;;;;;;;;;;;;;;;23.71;63.26;101458.66;4940993;29;19919;-82
2021/07/15 02:23:30;;;;;;;;;;;;;;;24.16;61.22;101446.19;4926390;29;19925;-81
2021/07/15 02:25:56;;;;;;;;;;;;;;;23.93;61.55;101443.75;4927738;29;19929;-81
2021/07/15 02:28:23;;;;;;;;;;;;;;;23.41;63.73;101435.66;4924983;29;19943;-80
2021/07/15 02:30:51;;;;;;;;;;;;;;;23.36;64.20;101437.97;4925076;29;19925;-82
2021/07/15 02:33:17;;;;;;;;;;;;;;;23.34;63.56;101440.88;4924683;29;19925;-82
2021/07/15 02:35:46;;;;;;;;;;;;;;;23.36;64.50;101444.38;4944126;29;19922;-80
2021/07/15 02:38:13;;;;;;;;;;;;;;;23.76;62.96;101444.41;4928480;29;19958;-80
2021/07/15 02:40:39;;;;;;;;;;;;;;;23.70;62.87;101434.81;4928839;29;19916;-81
2021/07/15 02:43:04;;;;;;;;;;;;;;;23.57;63.89;101442.50;4945616;29;19919;-83
2021/07/15 02:45:30;;;;;;;;;;;;;;;24.04;61.84;101438.03;4945937;29;19962;-82
2021/07/15 02:47:55;;;;;;;;;;;;;;;22.82;65.97;101437.34;4928195;29;19962;-81
2021/07/15 02:50:22;;;;;;;;;;;;;;;23.17;64.93;101433.28;4928112;29;19926;-81
2021/07/15 02:52:48;;;;;;;;;;;;;;;23.60;63.46;101436.72;4928501;29;20487;-81
2021/07/15 02:55:14;;;;;;;;;;;;;;;23.17;64.24;101439.69;4928265;29;19929;-83
2021/07/15 02:57:42;;;;;;;;;;;;;;;23.84;62.62;101447.34;4928321;29;19982;-81
2021/07/15 03:00:15;;;;;;;;;;;;;;;23.80;62.97;101445.88;4944884;29;20332;-82
2021/07/15 03:02:51;;;;;;;;;;;;;;;23.75;62.98;101442.66;4928135;29;19919;-80
2021/07/15 03:05:20;;;;;;;;;;;;;;;23.81;62.43;101442.06;4927750;29;19922;-82
2021/07/15 03:07:46;;;;;;;;;;;;;;;23.76;62.41;101445.28;4944504;29;20365;-80
2021/07/15 03:10:12;;;;;;;;;;;;;;;24.11;61.80;101438.34;4927643;29;20005;-80
2021/07/15 03:12:39;;;;;;;;;;;;;;;23.98;62.34;101448.81;4944221;29;19966;-81
2021/07/15 03:15:05;;;;;;;;;;;;;;;23.55;63.14;101448.16;4943496;29;20031;-81
2021/07/15 03:17:34;;;;;;;;;;;;;;;23.43;63.93;101441.94;4927057;29;20467;-81
2021/07/15 03:20:03;;;;;;;;;;;;;;;23.52;63.08;101449.34;4927442;29;19919;-82
2021/07/15 03:22:28;;;;;;;;;;;;;;;23.33;63.75;101450.16;4944348;29;20019;-82
2021/07/15 03:24:55;;;;;;;;;;;;;;;24.16;61.34;101446.19;4927366;29;19946;-83
2021/07/15 03:27:22;;;;;;;;;;;;;;;23.73;62.31;101448.34;4927349;29;19930;-80
2021/07/15 03:29:49;;;;;;;;;;;;;;;23.81;62.10;101450.38;4944610;29;19919;-81
2021/07/15 03:32:14;;;;;;;;;;;;;;;23.85;61.97;101443.56;4944284;29;19919;-80
2021/07/15 03:34:39;;;;;;;;;;;;;;;23.72;61.96;101449.38;4927381;29;19926;-80
2021/07/15 03:37:05;;;;;;;;;;;;;;;23.62;62.46;101451.25;4927173;29;19925;-81
2021/07/15 03:39:31;;;;;;;;;;;;;;;23.56;62.86;101446.28;4926805;29;20296;-80
2021/07/15 03:41:56;;;;;;;;;;;;;;;23.89;61.75;101448.66;4926577;29;19919;-81
2021/07/15 03:44:22;;;;;;;;;;;;;;;23.66;62.25;101455.47;4927415;29;19923;-81
2021/07/15 03:46:48;;;;;;;;;;;;;;;24.01;61.21;101463.22;4926744;29;19942;-82
2021/07/15 03:49:17;;;;;;;;;;;;;;;23.66;62.66;101464.63;4925010;29;19961;-82
2021/07/15 03:51:43;;;;;;;;;;;;;;;23.74;62.26;101463.03;4926079;29;20385;-82
2021/07/15 03:54:08;;;;;;;;;;;;;;;23.57;62.25;101467.34;4923941;29;19926;-81
2021/07/15 03:56:36;;;;;;;;;;;;;;;23.50;62.89;101467.94;4942506;29;19923;-80
2021/07/15 03:59:02;;;;;;;;;;;;;;;23.65;62.13;101471.16;4942400;29;19919;-82
2021/07/15 04:01:33;;;;;;;;;;;;;;;23.19;63.16;101469.91;4943406;29;19926;-81
2021/07/15 04:04:02;;;;;;;;;;;;;;;23.91;61.17;101465.09;4943396;29;19919;-81
2021/07/15 04:06:28;;;;;;;;;;;;;;;24.27;60.01;101470.91;4942345;29;19946;-80
2021/07/15 04:08:54;;;;;;;;;;;;;;;24.18;60.02;101471.78;4926222;29;20277;-81
2021/07/15 04:11:21;;;;;;;;;;;;;;;24.30;59.77;101484.44;4926816;29;19978;-82
2021/07/15 04:13:47;;;;;;;;;;;;;;;24.02;59.78;101483.41;4928234;29;19919;-81
2021/07/15 04:16:16;;;;;;;;;;;;;;;24.80;57.88;101482.47;4945118;29;19970;-80
2021/07/15 04:18:42;;;;;;;;;;;;;;;24.93;57.27;101488.53;4930570;29;19926;-82
2021/07/15 04:21:09;;;;;;;;;;;;;;;24.70;58.02;101494.44;4943626;29;19919;-82
2021/07/15 04:23:35;;;;;;;;;;;;;;;24.05;59.95;101489.53;4942324;29;19934;-81
2021/07/15 04:26:01;;;;;;;;;;;;;;;23.78;60.46;101475.53;4942267;29;19923;-82
2021/07/15 04:28:26;;;;;;;;;;;;;;;23.45;61.82;101491.50;4926194;29;19923;-82
2021/07/15 04:30:57;;;;;;;;;;;;;;;23.79;60.48;101485.56;4942255;29;19926;-83
2021/07/15 04:33:23;;;;;;;;;;;;;;;23.81;60.56;101497.34;4921511;29;19971;-83
2021/07/15 04:35:50;;;;;;;;;;;;;;;23.75;61.32;101503.44;4921267;29;19919;-82
2021/07/15 04:38:15;;;;;;;;;;;;;;;23.69;60.86;101494.72;4938177;29;20074;-82
2021/07/15 04:40:41;;;;;;;;;;;;;;;23.51;61.29;101485.41;4921284;29;20408;-81
2021/07/15 04:43:07;;;;;;;;;;;;;;;23.69;61.04;101489.19;4938015;29;19919;-82
2021/07/15 04:45:34;;;;;;;;;;;;;;;23.98;60.36;101512.38;4937782;29;19927;-82
2021/07/15 04:47:59;;;;;;;;;;;;;;;23.85;60.92;101496.06;4937891;29;20147;-82
2021/07/15 04:50:26;;;;;;;;;;;;;;;24.05;59.62;101508.00;4937982;29;20393;-83
2021/07/15 04:52:55;;;;;;;;;;;;;;;24.29;59.21;101517.75;4920283;29;19919;-81
2021/07/15 04:55:22;;;;;;;;;;;;;;;23.98;59.82;101521.53;4937975;29;20013;-84
2021/07/15 04:57:51;;;;;;;;;;;;;;;24.09;59.51;101520.53;4920582;29;19922;-83
2021/07/15 05:00:16;;;;;;;;;;;;;;;24.00;59.77;101511.22;4916797;29;20004;-82
2021/07/15 05:02:42;;;;;;;;;;;;;;;24.13;59.16;101518.38;4938074;29;20392;-82
2021/07/15 05:05:12;;;;;;;;;;;;;;;24.64;57.77;101511.63;4920616;29;20423;-80
2021/07/15 05:07:38;;;;;;;;;;;;;;;24.36;58.78;101516.16;4937652;29;19946;-82
2021/07/15 05:10:07;;;;;;;;;;;;;;;23.89;60.14;101519.66;4920111;29;19997;-81
2021/07/15 05:12:33;;;;;;;;;;;;;;;24.40;58.20;101518.47;4920328;29;19923;-80
2021/07/15 05:15:00;;;;;;;;;;;;;;;24.26;59.11;101521.69;4920164;29;19973;-82
2021/07/15 05:17:25;;;;;;;;;;;;;;;24.35;58.36;101522.69;4920576;29;19919;-83
2021/07/15 05:19:51;;;;;;;;;;;;;;;24.29;58.07;101520.53;4920973;29;20274;-83
2021/07/15 05:22:16;;;;;;;;;;;;;;;24.12;58.96;101520.22;4937864;29;19967;-82
2021/07/15 05:24:41;;;;;;;;;;;;;;;23.60;60.09;101517.69;4920254;29;19930;-82
2021/07/15 05:27:07;;;;;;;;;;;;;;;24.11;58.67;101521.28;4920228;29;19930;-80
2021/07/15 05:29:33;;;;;;;;;;;;;;;24.28;58.16;101533.50;4920142;29;19930;-83
2021/07/15 05:32:01;;;;;;;;;;;;;;;24.44;57.23;101526.47;4920356;29;20269;-85
2021/07/15 05:34:27;;;;;;;;;;;;;;;24.06;58.55;101532.78;4938604;29;19919;-85
2021/07/15 05:36:52;;;;;;;;;;;;;;;23.50;60.17;101527.81;4925749;29;19929;-86
2021/07/15 05:39:17;;;;;;;;;;;;;;;23.91;58.37;101525.91;4923954;29;19918;-85
2021/07/15 05:41:42;;;;;;;;;;;;;;;24.01;58.83;101525.91;4920211;29;19979;-83
2021/07/15 05:44:08;;;;;;;;;;;;;;;23.81;59.10;101531.38;4920341;29;20037;-82
2021/07/15 05:46:33;;;;;;;;;;;;;;;23.86;59.11;101533.75;4936885;29;20005;-81
2021/07/15 05:48:58;;;;;;;;;;;;;;;24.91;55.66;101527.44;4937462;29;19974;-83
2021/07/15 05:51:23;;;;;;;;;;;;;;;23.84;58.40;101524.72;4936640;29;19923;-82
2021/07/15 05:53:48;;;;;;;;;;;;;;;24.29;57.67;101534.34;4938148;29;19930;-83
2021/07/15 05:56:14;;;;;;;;;;;;;;;24.01;57.52;101532.31;4938116;29;19923;-84
2021/07/15 05:58:39;;;;;;;;;;;;;;;24.29;57.63;101529.72;4920503;29;20388;-84
2021/07/15 06:01:04;;;;;;;;;;;;;;;23.42;59.92;101527.66;4936757;29;19954;-81
2021/07/15 06:03:30;;;;;;;;;;;;;;;24.20;58.05;101537.00;4919395;29;19919;-81
2021/07/15 06:05:55;;;;;;;;;;;;;;;23.73;58.66;101538.63;4920061;29;19970;-84
2021/07/15 06:08:20;;;;;;;;;;;;;;;23.80;59.28;101543.44;4938571;29;19985;-79
2021/07/15 06:10:45;;;;;;;;;;;;;;;23.69;59.05;101541.69;4922523;29;20013;-80
2021/07/15 06:13:13;;;;;;;;;;;;;;;23.29;60.38;101528.75;4919996;29;19919;-85
2021/07/15 06:15:38;;;;;;;;;;;;;;;23.15;60.42;101520.88;4920595;29;19982;-85
2021/07/15 06:18:03;;;;;;;;;;;;;;;23.65;59.38;101540.22;4919969;29;20372;-83
2021/07/15 06:20:28;;;;;;;;;;;;;;;24.12;57.55;101541.50;4936862;29;19919;-81
2021/07/15 06:22:54;;;;;;;;;;;;;;;24.37;57.33;101553.88;4919307;29;19919;-81
2021/07/15 06:25:19;;;;;;;;;;;;;;;24.84;55.18;101562.28;4936321;29;20286;-84
2021/07/15 06:27:44;;;;;;;;;;;;;;;24.15;57.59;101566.94;4917708;29;19930;-79
2021/07/15 06:30:13;;;;;;;;;;;;;;;24.36;56.99;101563.16;4916028;29;19919;-80
2021/07/15 06:32:38;;;;;;;;;;;;;;;24.59;55.97;101563.75;4917166;29;20404;-82
2021/07/15 06:35:04;;;;;;;;;;;;;;;24.32;57.05;101570.00;4917595;29;19946;-81
2021/07/15 06:37:34;;;;;;;;;;;;;;;24.24;56.92;101565.19;4917246;29;19914;-79
2021/07/15 06:40:00;;;;;;;;;;;;;;;24.86;54.86;101564.88;4916921;29;20010;-80
2021/07/15 06:42:25;;;;;;;;;;;;;;;24.66;55.70;101564.91;4934139;29;19918;-81
2021/07/15 06:44:51;;;;;;;;;;;;;;;24.56;55.87;101575.97;4935319;29;19923;-80
2021/07/15 06:47:16;;;;;;;;;;;;;;;24.82;55.07;101566.19;4935661;29;19978;-80
2021/07/15 06:49:41;;;;;;;;;;;;;;;24.77;55.20;101581.38;4935502;29;19915;-80
2021/07/15 06:52:08;;;;;;;;;;;;;;;24.53;56.00;101579.03;4918538;29;19926;-79
2021/07/15 06:54:33;;;;;;;;;;;;;;;24.64;55.97;101582.69;4935996;29;19926;-81
2021/07/15 06:56:58;;;;;;;;;;;;;;;24.69;55.44;101572.94;4918878;29;19923;-82
2021/07/15 06:59:24;;;;;;;;;;;;;;;24.59;55.72;101589.56;4922664;29;19923;-82
2021/07/15 07:01:49;;;;;;;;;;;;;;;24.59;55.68;101580.34;4917654;29;19919;-81
2021/07/15 07:04:14;;;;;;;;;;;;;;;24.12;57.23;101589.34;4921472;29;19918;-82
2021/07/15 07:06:39;;;;;;;;;;;;;;;24.35;56.30;101597.38;4918375;29;19926;-81
2021/07/15 07:09:05;;;;;;;;;;;;;;;24.39;56.27;101594.16;4918394;29;19919;-81
2021/07/15 07:11:30;;;;;;;;;;;;;;;24.26;56.48;101599.09;4911441;29;19923;-79
2021/07/15 07:13:55;;;;;;;;;;;;;;;24.26;56.15;101595.47;4918307;29;19919;-82
2021/07/15 07:16:20;;;;;;;;;;;;;;;24.19;56.22;101593.28;4935553;29;19969;-82
2021/07/15 07:18:46;;;;;;;;;;;;;;;24.34;55.73;101592.88;4918481;29;19970;-82
2021/07/15 07:21:11;;;;;;;;;;;;;;;24.24;56.69;101593.72;4919725;29;19915;-80
2021/07/15 07:23:37;;;;;;;;;;;;;;;24.49;55.81;101609.88;4922195;29;20262;-81
2021/07/15 07:26:03;;;;;;;;;;;;;;;24.53;55.61;101605.81;4922023;29;20351;-82
2021/07/15 07:28:28;;;;;;;;;;;;;;;24.35;56.04;101605.66;4922988;29;19958;-82
2021/07/15 07:30:53;;;;;;;;;;;;;;;25.00;54.10;101607.81;4939554;29;20010;-81
2021/07/15 07:33:19;;;;;;;;;;;;;;;24.90;53.94;101605.94;4938642;29;19982;-82
2021/07/15 07:35:44;;;;;;;;;;;;;;;25.60;52.54;101613.91;4939061;29;19982;-81
2021/07/15 07:38:10;;;;;;;;;;;;;;;25.72;51.96;101606.28;4921950;29;19919;-79
2021/07/15 07:40:35;;;;;;;;;;;;;;;25.46;53.16;101600.56;4939113;29;20045;-80
2021/07/15 07:43:01;;;;;;;;;;;;;;;25.67;52.11;101607.78;4938791;29;19965;-81
2021/07/15 07:45:26;;;;;;;;;;;;;;;25.64;51.98;101625.56;4938279;29;19934;-82
2021/07/15 07:47:51;;;;;;;;;;;;;;;25.35;52.27;101634.88;4910721;29;19947;-80
2021/07/15 07:50:16;;;;;;;;;;;;;;;25.26;53.48;101621.91;4937442;29;19922;-81
2021/07/15 07:52:42;;;;;;;;;;;;;;;25.40;52.34;101620.59;4937986;29;19986;-80
2021/07/15 07:55:08;;;;;;;;;;;;;;;25.93;50.70;101613.47;4920741;29;19927;-79
2021/07/15 07:57:33;;;;;;;;;;;;;;;26.03;50.41;101619.84;4920687;29;19935;-81
2021/07/15 07:59:59;;;;;;;;;;;;;;;25.79;50.88;101615.72;4938554;29;19926;-80
2021/07/15 08:02:24;;;;;;;;;;;;;;;26.27;49.92;101616.47;4922244;29;19926;-80
2021/07/15 08:04:50;;;;;;;;;;;;;;;26.26;49.70;101622.19;4938322;29;19915;-81
2021/07/15 08:07:15;;;;;;;;;;;;;;;26.03;50.54;101630.06;4938085;29;19919;-81
2021/07/15 08:09:45;;;;;;;;;;;;;;;26.24;49.75;101632.53;4937326;29;19926;-80
2021/07/15 08:12:12;;;;;;;;;;;;;;;26.43;48.80;101642.63;4938501;29;19923;-80
2021/07/15 08:14:38;;;;;;;;;;;;;;;26.69;48.31;101637.19;4937602;29;20373;-84
2021/07/15 08:17:03;;;;;;;;;;;;;;;26.48;48.92;101641.13;4937910;29;20009;-83
2021/07/15 08:19:28;;;;;;;;;;;;;;;26.43;49.14;101646.28;4936500;29;19923;-81
2021/07/15 08:21:54;;;;;;;;;;;;;;;25.70;51.12;101635.19;4920781;29;20337;-80
2021/07/15 08:24:19;;;;;;;;;;;;;;;25.59;50.91;101650.09;4937956;29;19926;-80
2021/07/15 08:26:45;;;;;;;;;;;;;;;26.23;49.34;101648.31;4938222;29;19923;-81
2021/07/15 08:29:10;;;;;;;;;;;;;;;26.45;48.60;101646.13;4921181;29;20076;-82
2021/07/15 08:31:35;;;;;;;;;;;;;;;25.90;50.52;101641.50;4920260;29;19919;-82
2021/07/15 08:34:01;;;;;;;;;;;;;;;25.72;51.58;101646.97;4936634;29;20316;-82
2021/07/15 08:36:28;;;;;;;;;;;;;;;27.07;47.30;101640.63;4937223;29;19919;-80
2021/07/15 08:38:54;;;;;;;;;;;;;;;25.71;51.25;101648.91;4920059;29;19923;-80
2021/07/15 08:41:19;;;;;;;;;;;;;;;26.31;49.71;101639.22;4919781;29;19931;-80
2021/07/15 08:43:45;;;;;;;;;;;;;;;25.99;50.29;101649.78;4937426;29;19926;-80
2021/07/15 08:46:12;;;;;;;;;;;;;;;26.07;49.62;101654.53;4920127;29;20469;-80
2021/07/15 08:48:39;;;;;;;;;;;;;;;26.25;49.63;101645.41;4919772;29;19919;-83
2021/07/15 08:51:04;;;;;;;;;;;;;;;26.83;47.70;101663.53;4936335;29;19919;-80
2021/07/15 08:53:31;;;;;;;;;;;;;;;27.14;46.93;101644.47;4900662;29;19942;-81
2021/07/15 08:58:41;;;;;;;;;;;;;;;27.67;45.52;101681.47;4917822;29;19929;-81
2021/07/15 09:01:07;;;;;;;;;;;;;;;26.50;48.21;101666.81;4917153;29;20006;-82
2021/07/15 09:03:34;;;;;;;;;;;;;;;26.27;49.12;101677.50;4917870;29;20006;-81
2021/07/15 09:05:59;;;;;;;;;;;;;;;26.45;48.60;101683.06;4918213;29;20397;-80
2021/07/15 09:08:27;;;;;;;;;;;;;;;26.01;49.83;101677.34;4928072;29;20087;-81
2021/07/15 09:10:55;;;;;;;;;;;;;;;26.23;49.13;101681.59;4917724;29;20373;-82
2021/07/15 09:13:20;;;;;;;;;;;;;;;26.15;49.69;101676.84;4916787;29;20326;-83
2021/07/15 09:15:47;;;;;;;;;;;;;;;26.72;47.95;101675.72;4917146;29;19919;-80
2021/07/15 09:18:12;;;;;;;;;;;;;;;26.74;47.76;101684.78;4914747;29;20351;-83
2021/07/15 09:20:38;;;;;;;;;;;;;;;27.06;46.56;101689.72;4937686;29;19953;-80
2021/07/15 09:23:04;;;;;;;;;;;;;;;26.91;47.29;101693.25;4920018;29;19974;-80
2021/07/15 09:25:39;;;;;;;;;;;;;;;26.16;48.67;101695.25;4935843;29;20373;-81
2021/07/15 09:28:08;;;;;;;;;;;;;;;26.96;47.09;101693.66;4918769;29;19978;-81
2021/07/15 09:30:34;;;;;;;;;;;;;;;27.23;46.13;101689.88;4930603;29;19942;-82
2021/07/15 09:33:00;;;;;;;;;;;;;;;27.31;45.92;101677.94;4917900;29;19919;-81
2021/07/15 09:35:27;;;;;;;;;;;;;;;27.50;45.87;101688.00;4918487;29;19919;-82
2021/07/15 09:37:53;;;;;;;;;;;;;;;27.96;44.05;101708.09;4918021;29;20006;-82
2021/07/15 09:40:35;;;;;;;;;;;;;;;27.75;45.00;101695.44;4936007;29;19926;-81
2021/07/15 09:43:10;;;;;;;;;;;;;;;27.14;46.27;101691.69;4917727;29;19918;-80
2021/07/15 09:45:35;;;;;;;;;;;;;;;27.45;45.50;101685.72;4915514;29;20379;-82
2021/07/15 09:48:11;;;;;;;;;;;;;;;27.51;45.71;101685.06;4918125;29;19922;-83
2021/07/15 09:50:38;;;;;;;;;;;;;;;27.70;44.83;101695.06;4916098;29;20399;-82
2021/07/15 09:53:17;;;;;;;;;;;;;;;27.82;44.45;101695.66;4918986;29;20021;-82
2021/07/15 09:55:43;;;;;;;;;;;;;;;27.80;44.09;101705.22;4939483;29;19926;-82
2021/07/15 09:58:12;;;;;;;;;;;;;;;27.18;45.81;101706.16;4924758;29;19923;-81
2021/07/15 10:00:41;;;;;;;;;;;;;;;27.61;44.39;101709.09;4934992;29;19919;-80
2021/07/15 10:03:08;;;;;;;;;;;;;;;27.49;45.00;101714.03;4934364;29;19919;-81
2021/07/15 10:05:37;;;;;;;;;;;;;;;27.80;44.53;101714.41;4917240;29;19926;-82
2021/07/15 10:08:03;;;;;;;;;;;;;;;27.82;44.32;101722.59;4934420;29;19931;-82
2021/07/15 10:10:28;;;;;;;;;;;;;;;26.93;46.45;101727.28;4916851;29;19929;-80
2021/07/15 10:12:55;;;;;;;;;;;;;;;27.62;44.92;101724.75;4917166;29;19926;-81
2021/07/15 10:15:20;;;;;;;;;;;;;;;27.41;45.42;101724.06;4935630;29;20395;-80
2021/07/15 10:17:46;;;;;;;;;;;;;;;27.45;45.26;101734.84;4935648;29;19961;-80
2021/07/15 10:20:18;;;;;;;;;;;;;;;27.84;43.99;101728.84;4918461;29;19943;-84
2021/07/15 10:22:44;;;;;;;;;;;;;;;27.68;44.74;101721.31;4935738;29;19923;-82
2021/07/15 10:25:10;;;;;;;;;;;;;;;26.64;47.58;101725.59;4935525;29;19945;-79
2021/07/15 10:27:36;;;;;;;;;;;;;;;27.01;46.27;101722.69;4935700;29;20431;-79
2021/07/15 10:30:02;;;;;;;;;;;;;;;27.11;46.61;101718.94;4918823;29;19918;-80
2021/07/15 10:32:27;;;;;;;;;;;;;;;26.85;46.90;101719.75;4935526;29;20292;-81
2021/07/15 10:34:54;;;;;;;;;;;;;;;27.68;44.95;101722.16;4935288;29;20530;-82
2021/07/15 10:37:20;;;;;;;;;;;;;;;27.93;44.04;101723.19;4918188;29;19950;-83
2021/07/15 10:39:46;;;;;;;;;;;;;;;27.90;44.22;101730.97;4933507;29;19923;-80
2021/07/15 10:42:11;;;;;;;;;;;;;;;27.38;45.53;101729.94;4917149;29;19927;-80
2021/07/15 10:44:36;;;;;;;;;;;;;;;27.93;44.14;101733.41;4934001;29;19915;-82
2021/07/15 10:47:03;;;;;;;;;;;;;;;27.38;45.76;101724.38;4916637;29;19923;-79
2021/07/15 10:49:28;;;;;;;;;;;;;;;27.45;45.48;101724.63;4915171;29;19926;-79
2021/07/15 10:51:54;;;;;;;;;;;;;;;27.74;44.72;101727.06;4932796;29;19918;-82
2021/07/15 10:54:19;;;;;;;;;;;;;;;27.52;45.87;101733.16;4916787;29;20672;-83
2021/07/15 10:56:46;;;;;;;;;;;;;;;27.57;45.49;101723.31;4919882;29;19934;-81
2021/07/15 10:59:21;;;;;;;;;;;;;;;28.19;43.60;101726.97;4939117;29;19919;-80
2021/07/15 11:01:46;;;;;;;;;;;;;;;28.01;43.64;101722.38;4919606;29;20478;-81
2021/07/15 11:04:22;;;;;;;;;;;;;;;28.11;43.50;101727.78;4922499;29;19919;-80
2021/07/15 11:06:49;;;;;;;;;;;;;;;27.75;44.01;101725.19;4939630;29;19919;-83
2021/07/15 11:09:28;;;;;;;;;;;;;;;28.26;43.38;101719.69;4933895;29;19946;-84
2021/07/15 11:11:54;;;;;;;;;;;;;;;28.02;43.42;101718.56;4922622;29;19923;-83
2021/07/15 11:14:38;;;;;;;;;;;;;;;27.38;45.36;101735.50;4943813;29;19929;-82
2021/07/15 11:17:24;;;;;;;;;;;;;;;27.04;46.77;101730.69;4920798;29;19923;-84
2021/07/15 11:19:59;;;;;;;;;;;;;;;27.73;44.80;101730.91;4906560;29;19966;-84
2021/07/15 11:22:48;;;;;;;;;;;;;;;27.76;44.61;101732.44;4921542;29;19915;-82
2021/07/15 11:25:31;;;;;;;;;;;;;;;28.03;43.88;101736.13;4910539;29;19948;-84
2021/07/15 11:28:03;;;;;;;;;;;;;;;27.38;45.25;101751.31;4922519;29;19930;-85
2021/07/15 11:30:34;;;;;;;;;;;;;;;27.28;45.24;101745.84;4922090;29;20299;-82
2021/07/15 11:33:22;;;;;;;;;;;;;;;28.32;42.94;101749.63;4939404;29;19926;-83
2021/07/15 11:36:09;;;;;;;;;;;;;;;28.68;42.38;101754.13;4914397;29;19997;-84
2021/07/15 11:38:34;;;;;;;;;;;;;;;28.24;42.50;101750.47;4940289;29;19974;-81
2021/07/15 11:41:04;;;;;;;;;;;;;;;28.07;43.08;101757.00;4941944;29;19923;-79
2021/07/15 11:43:31;;;;;;;;;;;;;;;28.36;43.07;101764.09;4923074;29;19918;-82
2021/07/15 11:46:01;;;;;;;;;;;;;;;28.46;42.41;101753.69;4944518;29;20377;-85
2021/07/15 11:48:45;;;;;;;;;;;;;;;28.33;42.92;101754.16;4925551;29;19947;-82
2021/07/15 11:51:30;;;;;;;;;;;;;;;28.75;42.14;101763.53;4921892;29;20017;-81
2021/07/15 11:54:28;;;;;;;;;;;;;;;28.98;41.07;101758.16;4921274;29;19919;-80
2021/07/15 11:57:11;;;;;;;;;;;;;;;28.52;41.72;101753.00;4905834;29;19931;-77
2021/07/15 11:59:36;;;;;;;;;;;;;;;29.32;40.76;101763.63;4938205;29;19919;-79
2021/07/15 12:02:09;;;;;;;;;;;;;;;28.98;41.26;101764.59;4937523;29;20317;-79
2021/07/15 12:04:53;;;;;;;;;;;;;;;28.77;42.12;101773.44;4936522;29;19923;-79
2021/07/15 12:07:19;;;;;;;;;;;;;;;28.83;41.94;101769.13;4936329;29;19919;-80
2021/07/15 12:09:47;;;;;;;;;;;;;;;28.61;42.34;101770.63;4919147;29;19926;-79
2021/07/15 12:12:15;;;;;;;;;;;;;;;28.90;41.45;101781.31;4936181;29;19919;-80
2021/07/15 12:14:41;;;;;;;;;;;;;;;29.03;40.72;101785.50;4919837;29;19995;-79
2021/07/15 12:17:06;;;;;;;;;;;;;;;27.24;44.69;101778.59;4919368;29;19926;-79
2021/07/15 12:19:32;;;;;;;;;;;;;;;28.38;42.34;101776.78;4920856;29;19919;-79
2021/07/15 12:22:00;;;;;;;;;;;;;;;27.53;44.68;101773.84;4921200;29;19981;-79
2021/07/15 12:24:27;;;;;;;;;;;;;;;29.19;41.33;101787.47;4938513;29;19923;-79
2021/07/15 12:26:58;;;;;;;;;;;;;;;28.96;40.96;101793.69;4920905;29;19923;-79
2021/07/15 12:29:28;;;;;;;;;;;;;;;28.42;42.87;101789.31;4921023;29;20009;-79
2021/07/15 12:31:54;;;;;;;;;;;;;;;28.08;43.15;101794.91;4920489;29;20010;-79
2021/07/15 12:34:19;;;;;;;;;;;;;;;28.77;41.97;101789.28;4937384;29;19919;-80
2021/07/15 12:36:51;;;;;;;;;;;;;;;27.93;43.95;101784.38;4937565;29;20402;-80
2021/07/15 12:39:17;;;;;;;;;;;;;;;28.48;42.00;101775.78;4937565;29;19919;-78